Time;durP1;ratioP1;P1;durP2;ratioP2;P2;SDS_P1;SDS_P2;PMS_P1;PMS_P2;Temp;Humidity;BMP_temperature;BMP_pressure;BME280_temperature;BME280_humidity;BME280_pressure;Samples;Min_cycle;Max_cycle;Signal;HPM_P1;HPM_P2
2022/09/11 00:01:18;;;;;;;6.00;2.27;;;16.10;99.90;;;;;;4994345;28;20913;-64
2022/09/11 00:03:46;;;;;;;4.80;2.20;;;16.10;99.90;;;;;;4995720;28;20474;-65
2022/09/11 00:06:19;;;;;;;4.30;2.17;;;16.10;99.90;;;;;;5010975;28;20179;-65
2022/09/11 00:08:47;;;;;;;5.30;2.00;;;16.10;99.90;;;;;;5005342;28;20490;-65
2022/09/11 00:11:16;;;;;;;6.90;1.80;;;16.10;99.90;;;;;;4996440;28;20448;-65
2022/09/11 00:13:44;;;;;;;6.40;1.80;;;16.10;99.90;;;;;;5008837;28;20441;-64
2022/09/11 00:16:27;;;;;;;4.27;1.67;;;16.00;99.90;;;;;;5001822;28;20793;-65
2022/09/11 00:18:55;;;;;;;4.03;1.77;;;16.00;99.90;;;;;;5007585;28;20442;-64
2022/09/11 00:21:22;;;;;;;3.67;1.93;;;16.00;99.90;;;;;;5001953;28;20439;-65
2022/09/11 00:23:50;;;;;;;2.60;1.90;;;16.00;99.90;;;;;;5003784;28;20947;-65
2022/09/11 00:26:17;;;;;;;3.07;2.40;;;15.90;99.90;;;;;;4999519;28;20797;-65
2022/09/11 00:28:44;;;;;;;4.30;1.80;;;15.90;99.90;;;;;;4994504;28;20451;-65
2022/09/11 00:31:16;;;;;;;2.17;1.67;;;15.90;99.90;;;;;;5008462;28;20535;-65
2022/09/11 00:33:43;;;;;;;4.30;2.60;;;15.90;99.90;;;;;;5005194;28;20426;-65
2022/09/11 00:36:15;;;;;;;6.50;2.27;;;15.90;99.90;;;;;;4993428;28;20424;-65
2022/09/11 00:38:41;;;;;;;7.83;2.37;;;15.90;99.90;;;;;;4993578;28;20475;-65
2022/09/11 00:41:16;;;;;;;3.80;2.90;;;15.90;99.90;;;;;;5003680;28;20430;-64
2022/09/11 00:44:15;;;;;;;11.03;2.93;;;15.90;99.90;;;;;;5013918;28;20415;-65
2022/09/11 00:46:45;;;;;;;4.40;2.57;;;15.90;99.90;;;;;;4991624;28;20426;-64
2022/09/11 00:49:33;;;;;;;15.97;2.87;;;15.90;99.90;;;;;;5004423;28;20618;-64
2022/09/11 00:52:06;;;;;;;4.70;2.43;;;15.90;99.90;;;;;;5000191;28;20427;-65
2022/09/11 00:54:38;;;;;;;6.87;2.60;;;15.90;99.90;;;;;;4999435;28;20452;-65
2022/09/11 00:57:06;;;;;;;9.20;2.03;;;15.80;99.90;;;;;;4992849;28;20536;-65
2022/09/11 00:59:33;;;;;;;5.63;2.20;;;15.80;99.90;;;;;;4997884;28;20432;-65
2022/09/11 01:01:59;;;;;;;4.33;2.30;;;15.80;99.90;;;;;;4998038;28;20463;-65
2022/09/11 01:04:25;;;;;;;4.23;1.70;;;15.90;99.90;;;;;;4994920;28;20534;-65
2022/09/11 01:06:56;;;;;;;3.70;1.83;;;15.90;99.90;;;;;;5003944;28;20489;-64
2022/09/11 01:09:25;;;;;;;10.60;2.10;;;15.90;99.90;;;;;;4988732;28;20948;-65
2022/09/11 01:11:59;;;;;;;3.70;2.30;;;15.90;99.90;;;;;;5000711;28;20754;-65
2022/09/11 01:15:02;;;;;;;9.40;2.47;;;15.80;99.90;;;;;;5003890;28;20463;-65
2022/09/11 01:17:31;;;;;;;3.40;1.97;;;15.90;99.90;;;;;;4979568;28;20979;-65
2022/09/11 01:20:12;;;;;;;3.13;2.00;;;15.80;99.90;;;;;;5002269;28;20435;-65
2022/09/11 01:23:06;;;;;;;2.80;1.90;;;15.80;99.90;;;;;;5011466;28;21075;-65
2022/09/11 01:25:53;;;;;;;3.33;1.90;;;15.70;99.90;;;;;;4984587;28;20424;-65
2022/09/11 01:28:45;;;;;;;4.57;2.03;;;15.70;99.90;;;;;;5005114;28;20454;-64
2022/09/11 01:31:15;;;;;;;3.43;2.33;;;15.70;99.90;;;;;;5005497;28;20580;-65
2022/09/11 01:33:46;;;;;;;4.70;2.00;;;15.70;99.90;;;;;;5003817;28;20517;-65
2022/09/11 01:36:20;;;;;;;4.70;2.07;;;15.70;99.90;;;;;;5000404;28;20404;-65
2022/09/11 01:38:50;;;;;;;3.43;2.10;;;15.70;99.90;;;;;;4999228;28;20466;-65
2022/09/11 01:41:28;;;;;;;4.07;1.97;;;15.70;99.90;;;;;;5011676;28;20419;-64
2022/09/11 01:44:05;;;;;;;3.10;2.30;;;15.70;99.90;;;;;;5005202;28;20499;-65
2022/09/11 01:46:37;;;;;;;3.00;1.97;;;15.70;99.90;;;;;;5006075;28;20470;-65
2022/09/11 01:49:14;;;;;;;2.30;1.90;;;15.70;99.90;;;;;;4994060;28;20444;-65
2022/09/11 01:51:40;;;;;;;2.53;1.57;;;15.70;99.90;;;;;;4996428;28;20420;-64
2022/09/11 01:54:14;;;;;;;13.83;2.27;;;15.70;99.90;;;;;;5008210;28;21010;-65
2022/09/11 01:56:59;;;;;;;3.30;1.90;;;15.70;99.90;;;;;;5003825;28;20420;-65
2022/09/11 01:59:46;;;;;;;4.80;1.70;;;15.70;99.90;;;;;;4993319;28;21165;-65
2022/09/11 02:02:18;;;;;;;3.80;2.00;;;15.70;99.90;;;;;;5009490;28;20781;-65
2022/09/11 02:04:58;;;;;;;4.20;2.17;;;15.70;99.90;;;;;;4993104;28;20461;-65
2022/09/11 02:08:02;;;;;;;7.77;2.20;;;15.70;99.90;;;;;;4997412;28;20529;-65
2022/09/11 02:10:57;;;;;;;2.90;2.03;;;15.60;99.90;;;;;;5000470;28;20474;-65
2022/09/11 02:14:04;;;;;;;5.40;2.30;;;15.60;99.90;;;;;;4970207;28;20417;-65
2022/09/11 02:17:00;;;;;;;3.87;2.10;;;15.60;99.90;;;;;;4990453;28;20446;-64
2022/09/11 02:19:28;;;;;;;3.70;2.07;;;15.70;99.90;;;;;;4997908;28;20526;-65
2022/09/11 02:21:56;;;;;;;7.43;2.80;;;15.70;99.90;;;;;;5004245;28;21050;-65
2022/09/11 02:24:22;;;;;;;2.37;1.70;;;15.70;99.90;;;;;;4996599;28;20960;-64
2022/09/11 02:26:54;;;;;;;2.93;1.70;;;15.70;99.90;;;;;;4996945;28;20451;-65
2022/09/11 02:29:20;;;;;;;2.30;1.77;;;15.60;99.90;;;;;;5010611;28;20725;-64
2022/09/11 02:31:46;;;;;;;4.43;1.90;;;15.50;99.90;;;;;;5007616;28;20448;-64
2022/09/11 02:34:14;;;;;;;3.53;2.00;;;15.60;99.90;;;;;;5007188;28;20196;-64
2022/09/11 02:37:14;;;;;;;2.83;1.97;;;15.60;99.90;;;;;;5009226;28;20422;-64
2022/09/11 02:40:18;;;;;;;2.50;1.67;;;15.60;99.90;;;;;;4971739;28;20467;-65
2022/09/11 02:42:53;;;;;;;4.10;1.97;;;15.60;99.90;;;;;;4988946;28;20485;-64
2022/09/11 02:45:53;;;;;;;2.73;2.17;;;15.50;99.90;;;;;;5004258;28;20511;-66
2022/09/11 02:48:43;;;;;;;3.57;2.30;;;15.50;99.90;;;;;;5004624;28;20917;-65
2022/09/11 02:51:33;;;;;;;7.63;2.30;;;15.50;99.90;;;;;;5009573;28;20420;-65
2022/09/11 02:54:24;;;;;;;6.63;2.70;;;15.50;99.90;;;;;;5009838;28;20458;-67
2022/09/11 02:57:18;;;;;;;4.33;2.20;;;15.60;99.90;;;;;;4993531;28;20408;-65
2022/09/11 02:59:55;;;;;;;4.03;2.30;;;15.60;99.90;;;;;;4992347;28;20877;-65
2022/09/11 03:02:23;;;;;;;4.27;2.30;;;15.50;99.90;;;;;;5009179;28;20420;-66
2022/09/11 03:04:49;;;;;;;3.00;1.70;;;15.50;99.90;;;;;;5010571;28;20411;-65
2022/09/11 03:07:15;;;;;;;10.80;2.50;;;15.50;99.90;;;;;;5008895;28;20454;-65
2022/09/11 03:09:42;;;;;;;7.00;2.60;;;15.50;99.90;;;;;;5009788;28;20196;-65
2022/09/11 03:12:09;;;;;;;5.80;2.27;;;15.50;99.90;;;;;;5009287;28;20518;-66
2022/09/11 03:14:35;;;;;;;11.10;3.10;;;15.40;99.90;;;;;;5010509;28;20459;-65
2022/09/11 03:17:01;;;;;;;6.40;2.50;;;15.50;99.90;;;;;;5009217;28;20911;-65
2022/09/11 03:19:27;;;;;;;3.30;2.03;;;15.40;99.90;;;;;;5009395;28;20203;-66
2022/09/11 03:21:52;;;;;;;5.60;2.17;;;15.40;99.90;;;;;;5010323;28;20821;-65
2022/09/11 03:24:19;;;;;;;3.60;2.10;;;15.40;99.90;;;;;;5008480;28;20424;-65
2022/09/11 03:26:44;;;;;;;3.53;1.97;;;15.50;99.90;;;;;;5010757;28;20176;-66
2022/09/11 03:29:10;;;;;;;4.93;1.90;;;15.50;99.90;;;;;;5007725;28;20489;-66
2022/09/11 03:31:36;;;;;;;1.60;1.40;;;15.40;99.90;;;;;;5010675;28;20180;-66
2022/09/11 03:34:02;;;;;;;2.43;1.80;;;15.40;1.00;;;;;;5000307;28;20200;-65
2022/09/11 03:36:28;;;;;;;6.23;1.87;;;15.50;99.90;;;;;;4997472;28;20169;-66
2022/09/11 03:38:54;;;;;;;14.97;2.30;;;15.50;99.90;;;;;;5010533;28;20465;-64
2022/09/11 03:41:20;;;;;;;2.80;1.50;;;15.50;99.90;;;;;;5008411;28;20574;-66
2022/09/11 03:43:46;;;;;;;2.63;1.60;;;15.50;99.90;;;;;;4995898;28;20332;-65
2022/09/11 03:46:11;;;;;;;13.20;2.27;;;15.50;99.90;;;;;;4997181;28;20449;-66
2022/09/11 03:48:38;;;;;;;6.10;1.70;;;15.40;99.90;;;;;;4995194;28;20189;-66
2022/09/11 03:51:04;;;;;;;5.80;2.00;;;15.40;99.90;;;;;;4996806;28;20165;-65
2022/09/11 03:53:31;;;;;;;3.43;1.63;;;15.40;99.90;;;;;;5003407;28;20473;-66
2022/09/11 03:55:59;;;;;;;2.03;1.60;;;15.30;99.90;;;;;;5008880;28;20498;-66
2022/09/11 03:58:25;;;;;;;4.60;1.70;;;15.30;99.90;;;;;;5007013;28;20961;-65
2022/09/11 04:00:50;;;;;;;10.23;2.13;;;15.30;99.90;;;;;;5008769;28;20423;-65
2022/09/11 04:03:16;;;;;;;5.23;2.07;;;15.30;99.90;;;;;;5004023;28;20175;-66
2022/09/11 04:05:54;;;;;;;4.50;2.30;;;15.30;99.90;;;;;;5009705;28;20233;-66
2022/09/11 04:08:20;;;;;;;3.70;1.90;;;15.30;99.90;;;;;;5007567;28;20542;-66
2022/09/11 04:10:46;;;;;;;3.23;1.87;;;15.40;99.90;;;;;;5007760;28;20422;-66
2022/09/11 04:13:11;;;;;;;3.83;1.87;;;15.30;99.90;;;;;;4998206;28;20184;-66
2022/09/11 04:15:37;;;;;;;10.40;2.27;;;15.40;99.90;;;;;;4995505;28;20545;-65
2022/09/11 04:18:07;;;;;;;3.20;1.70;;;15.30;99.90;;;;;;4995856;28;20549;-67
2022/09/11 04:20:32;;;;;;;10.80;2.53;;;15.30;99.90;;;;;;4992555;28;20188;-65
2022/09/11 04:22:58;;;;;;;3.40;1.53;;;15.40;99.90;;;;;;4995670;28;20416;-65
2022/09/11 04:25:24;;;;;;;7.03;1.87;;;15.40;99.90;;;;;;4996681;28;20177;-65
2022/09/11 04:27:50;;;;;;;6.53;2.00;;;15.40;99.90;;;;;;4995517;28;20259;-66
2022/09/11 04:30:16;;;;;;;2.43;1.57;;;15.40;99.90;;;;;;4996249;28;20191;-65
2022/09/11 04:32:41;;;;;;;7.23;2.07;;;15.40;99.90;;;;;;5005562;28;20486;-65
2022/09/11 04:35:07;;;;;;;10.77;2.70;;;15.30;99.90;;;;;;5007744;28;20758;-67
2022/09/11 04:37:34;;;;;;;17.60;2.87;;;15.30;99.90;;;;;;5002350;28;20188;-67
2022/09/11 04:40:00;;;;;;;2.90;1.70;;;15.20;99.90;;;;;;5005778;28;20604;-66
2022/09/11 04:42:25;;;;;;;13.00;2.40;;;15.30;99.90;;;;;;5008592;28;20838;-66
2022/09/11 04:44:51;;;;;;;8.43;2.17;;;15.30;99.90;;;;;;5009174;28;20795;-66
2022/09/11 04:47:17;;;;;;;23.03;3.93;;;15.30;99.90;;;;;;5006617;28;20180;-65
2022/09/11 04:49:45;;;;;;;18.47;3.70;;;15.20;99.90;;;;;;5008581;28;20207;-65
2022/09/11 04:52:11;;;;;;;15.13;3.20;;;15.30;99.90;;;;;;4999336;28;20243;-65
2022/09/11 04:54:37;;;;;;;10.17;2.33;;;15.20;99.90;;;;;;4994310;28;20460;-65
2022/09/11 04:57:03;;;;;;;9.60;2.40;;;15.20;99.90;;;;;;4994923;28;20173;-64
2022/09/11 04:59:28;;;;;;;13.20;2.60;;;15.20;99.90;;;;;;4994850;28;20540;-64
2022/09/11 05:01:54;;;;;;;15.10;4.13;;;15.20;99.90;;;;;;5008125;28;20176;-65
2022/09/11 05:04:20;;;;;;;8.03;2.17;;;15.10;99.90;;;;;;5004108;28;20173;-66
2022/09/11 05:06:49;;;;;;;9.97;2.50;;;15.20;99.90;;;;;;4997586;28;20205;-65
2022/09/11 05:09:16;;;;;;;3.53;2.10;;;15.10;99.90;;;;;;5005846;28;20435;-66
2022/09/11 05:11:42;;;;;;;13.97;2.87;;;15.20;99.90;;;;;;5001906;28;20448;-65
2022/09/11 05:14:08;;;;;;;9.10;3.10;;;15.30;99.90;;;;;;4995294;28;20861;-66
2022/09/11 05:16:34;;;;;;;6.70;2.60;;;15.30;99.90;;;;;;4995090;28;20546;-65
2022/09/11 05:19:02;;;;;;;12.93;3.30;;;15.40;99.90;;;;;;4993881;28;20494;-66
2022/09/11 05:21:28;;;;;;;7.30;2.80;;;15.40;99.90;;;;;;5006779;28;20499;-65
2022/09/11 05:23:56;;;;;;;12.93;3.03;;;15.30;99.90;;;;;;5008520;28;20498;-66
2022/09/11 05:26:24;;;;;;;9.40;2.73;;;15.30;99.90;;;;;;5006307;28;20589;-66
2022/09/11 05:29:06;;;;;;;9.63;3.00;;;15.30;99.90;;;;;;5007354;28;20474;-66
2022/09/11 05:31:31;;;;;;;10.50;2.70;;;15.30;99.90;;;;;;5006025;28;20419;-66
2022/09/11 05:33:59;;;;;;;5.40;2.13;;;15.30;99.90;;;;;;4994020;28;20422;-65
2022/09/11 05:36:25;;;;;;;13.67;3.73;;;15.30;99.90;;;;;;5000110;28;20180;-66
2022/09/11 05:38:52;;;;;;;6.33;2.10;;;15.20;1.00;;;;;;4993432;28;20472;-66
2022/09/11 05:41:18;;;;;;;9.10;2.30;;;15.30;1.00;;;;;;4994583;28;20613;-65
2022/09/11 05:43:44;;;;;;;10.60;2.60;;;15.40;99.90;;;;;;4993982;28;20444;-65
2022/09/11 05:46:13;;;;;;;5.77;2.00;;;15.30;99.90;;;;;;4996375;28;20909;-65
2022/09/11 05:48:40;;;;;;;24.07;4.50;;;15.40;99.90;;;;;;4995755;28;20666;-66
2022/09/11 05:51:09;;;;;;;23.17;3.70;;;15.40;99.90;;;;;;4995061;28;20967;-66
2022/09/11 05:53:36;;;;;;;14.23;3.00;;;15.50;99.90;;;;;;4994421;28;20416;-66
2022/09/11 05:56:07;;;;;;;19.17;3.87;;;15.50;99.90;;;;;;4993825;28;20447;-66
2022/09/11 05:58:33;;;;;;;23.13;3.80;;;15.50;99.90;;;;;;4995217;28;20486;-66
2022/09/11 06:01:10;;;;;;;21.07;3.13;;;15.50;99.90;;;;;;4993447;28;20417;-66
2022/09/11 06:03:36;;;;;;;10.43;2.70;;;15.60;99.90;;;;;;4993485;28;20169;-66
2022/09/11 06:06:04;;;;;;;11.07;3.13;;;15.60;99.90;;;;;;4993152;28;20443;-64
2022/09/11 06:08:32;;;;;;;4.37;2.17;;;15.60;99.90;;;;;;5002968;28;20451;-67
2022/09/11 06:10:58;;;;;;;26.53;3.43;;;15.60;99.90;;;;;;5004733;28;20427;-68
2022/09/11 06:13:25;;;;;;;3.57;2.10;;;15.70;99.90;;;;;;4993798;28;20522;-67
2022/09/11 06:15:51;;;;;;;2.80;1.80;;;15.70;99.90;;;;;;5002538;28;20673;-65
2022/09/11 06:18:16;;;;;;;5.77;2.30;;;16.00;99.90;;;;;;4997271;28;20554;-66
2022/09/11 06:20:42;;;;;;;3.37;2.07;;;16.80;1.00;;;;;;4993418;28;20177;-67
2022/09/11 06:23:10;;;;;;;17.30;3.30;;;17.40;1.00;;;;;;4993596;28;20180;-65
2022/09/11 06:25:36;;;;;;;13.50;3.00;;;17.60;99.90;;;;;;4993334;28;20231;-65
2022/09/11 06:28:02;;;;;;;20.43;3.87;;;18.70;99.90;;;;;;5000220;28;20443;-65
2022/09/11 06:30:27;;;;;;;23.17;3.00;;;19.20;1.00;;;;;;4994108;28;20416;-66
2022/09/11 06:32:55;;;;;;;12.47;3.10;;;19.70;1.00;;;;;;4991401;28;20256;-66
2022/09/11 06:35:24;;;;;;;17.17;3.83;;;19.60;99.90;;;;;;4990721;28;20196;-65
2022/09/11 06:37:50;;;;;;;18.60;3.77;;;19.10;99.90;;;;;;4990508;28;20427;-65
2022/09/11 06:40:16;;;;;;;12.77;3.40;;;18.70;1.00;;;;;;4990374;28;20418;-65
2022/09/11 06:42:42;;;;;;;8.13;2.80;;;18.40;99.90;;;;;;4991783;28;20208;-65
2022/09/11 06:45:08;;;;;;;5.40;2.37;;;18.00;99.90;;;;;;4991102;28;20779;-64
2022/09/11 06:47:34;;;;;;;11.87;2.93;;;18.10;1.00;;;;;;4990127;28;20208;-63
2022/09/11 06:49:59;;;;;;;5.03;2.30;;;18.00;99.90;;;;;;4989929;28;20467;-67
2022/09/11 06:52:26;;;;;;;16.30;3.00;;;18.00;1.00;;;;;;4991108;28;20618;-67
2022/09/11 06:54:52;;;;;;;25.83;4.80;;;18.00;64.90;;;;;;4990413;28;20519;-65
2022/09/11 06:57:18;;;;;;;6.27;2.80;;;17.90;99.90;;;;;;4988678;28;20477;-66
2022/09/11 06:59:44;;;;;;;9.37;3.07;;;17.80;1.00;;;;;;5002203;28;20545;-66
2022/09/11 07:02:10;;;;;;;15.00;3.47;;;17.60;99.90;;;;;;5000669;28;20424;-65
2022/09/11 07:04:36;;;;;;;15.33;4.83;;;17.50;1.00;;;;;;5001255;28;20423;-65
2022/09/11 07:07:02;;;;;;;5.07;3.50;;;17.60;16.80;;;;;;4990415;28;20912;-65
2022/09/11 07:09:27;;;;;;;8.80;4.77;;;17.50;1.00;;;;;;4989723;28;20805;-66
2022/09/11 07:11:53;;;;;;;10.83;5.20;;;17.60;1.00;;;;;;4990936;28;20177;-65
2022/09/11 07:14:22;;;;;;;12.57;5.23;;;17.60;1.00;;;;;;5004170;28;20232;-66
2022/09/11 07:16:49;;;;;;;17.13;5.70;;;17.60;99.90;;;;;;5006786;28;20264;-64
2022/09/11 07:19:17;;;;;;;9.63;6.00;;;17.80;1.00;;;;;;4994864;28;20456;-67
2022/09/11 07:21:43;;;;;;;14.87;5.80;;;18.40;99.90;;;;;;4994773;28;20407;-67
2022/09/11 07:24:09;;;;;;;10.80;6.37;;;18.70;1.00;;;;;;5003496;28;20415;-67
2022/09/11 07:26:35;;;;;;;7.40;6.03;;;18.80;99.90;;;;;;4990473;28;20669;-67
2022/09/11 07:29:01;;;;;;;10.10;5.80;;;18.90;1.00;;;;;;4997641;28;20197;-65
2022/09/11 07:31:29;;;;;;;8.93;6.40;;;19.10;1.00;;;;;;4993641;28;20428;-67
2022/09/11 07:33:56;;;;;;;6.70;6.10;;;19.00;1.00;;;;;;5000968;28;20427;-68
2022/09/11 07:36:25;;;;;;;11.40;6.87;;;18.80;99.90;;;;;;5005437;28;20420;-66
2022/09/11 07:38:51;;;;;;;19.90;7.30;;;18.60;1.00;;;;;;5004743;28;20463;-66
2022/09/11 07:41:20;;;;;;;21.33;9.10;;;18.40;99.90;;;;;;5007818;28;20511;-67
2022/09/11 07:43:47;;;;;;;13.13;9.47;;;18.40;1.00;;;;;;4998118;28;20420;-66
2022/09/11 07:46:13;;;;;;;16.90;7.33;;;18.30;1.10;;;;;;5010993;28;20790;-66
2022/09/11 07:48:41;;;;;;;8.07;7.27;;;18.60;1.00;;;;;;5011266;28;20459;-66
2022/09/11 07:51:10;;;;;;;18.47;7.73;;;19.10;1.00;;;;;;5010818;28;20514;-66
2022/09/11 07:53:44;;;;;;;14.47;8.50;;;19.70;99.90;;;;;;5016854;28;20514;-66
2022/09/11 07:56:14;;;;;;;9.93;7.53;;;20.40;1.00;;;;;;5011634;28;20822;-65
2022/09/11 07:58:41;;;;;;;17.83;7.93;;;20.30;1.00;;;;;;5008336;28;20516;-66
2022/09/11 08:01:10;;;;;;;9.23;7.90;;;20.50;1.00;;;;;;5009564;28;20411;-66
2022/09/11 08:03:36;;;;;;;12.27;7.20;;;20.50;1.00;;;;;;5008001;28;20424;-65
2022/09/11 08:06:07;;;;;;;8.17;7.30;;;20.50;99.90;;;;;;5009402;28;20430;-65
2022/09/11 08:08:34;;;;;;;9.77;7.87;;;20.80;99.90;;;;;;5007517;28;20454;-65
2022/09/11 08:11:05;;;;;;;11.60;7.90;;;20.90;99.90;;;;;;5009180;28;20423;-66
2022/09/11 08:13:32;;;;;;;8.60;7.20;;;20.90;99.90;;;;;;5001918;28;20426;-65
2022/09/11 08:15:58;;;;;;;9.87;7.47;;;20.70;1.00;;;;;;5000387;28;20513;-65
2022/09/11 08:18:23;;;;;;;9.77;7.10;;;20.70;56.70;;;;;;5007032;28;20427;-67
2022/09/11 08:20:49;;;;;;;10.60;7.23;;;21.30;54.30;;;;;;5004508;28;20197;-67
2022/09/11 08:23:15;;;;;;;10.10;7.30;;;21.80;1.00;;;;;;4995815;28;20561;-67
2022/09/11 08:25:42;;;;;;;7.90;6.50;;;22.20;1.00;;;;;;4994107;28;20280;-67
2022/09/11 08:28:08;;;;;;;9.63;6.83;;;22.30;1.00;;;;;;4994113;28;20270;-67
2022/09/11 08:30:37;;;;;;;20.57;8.00;;;22.30;1.00;;;;;;5006664;28;20424;-67
2022/09/11 08:33:08;;;;;;;32.17;9.43;;;22.20;1.00;;;;;;5009048;28;20415;-67
2022/09/11 08:35:34;;;;;;;14.33;7.03;;;22.40;1.00;;;;;;5007548;28;20452;-67
2022/09/11 08:38:02;;;;;;;33.47;9.40;;;22.70;1.00;;;;;;4994880;28;20588;-67
2022/09/11 08:40:30;;;;;;;20.80;7.30;;;22.40;1.00;;;;;;4995771;28;20420;-68
2022/09/11 08:43:00;;;;;;;7.10;5.90;;;22.30;1.00;;;;;;4984182;28;20479;-68
2022/09/11 08:45:32;;;;;;;18.07;7.33;;;22.20;1.00;;;;;;4995488;28;20992;-68
2022/09/11 08:47:59;;;;;;;7.97;6.60;;;22.10;1.00;;;;;;5002622;28;20438;-68
2022/09/11 08:50:41;;;;;;;39.17;8.90;;;22.00;1.00;;;;;;4996688;28;21411;-68
2022/09/11 08:53:14;;;;;;;15.00;7.00;;;21.70;99.90;;;;;;4994194;28;20426;-68
2022/09/11 08:55:48;;;;;;;10.80;6.97;;;21.70;99.90;;;;;;5006229;28;20460;-68
2022/09/11 08:58:57;;;;;;;11.63;6.47;;;21.70;1.00;;;;;;5004184;28;20529;-68
2022/09/11 09:01:40;;;;;;;8.20;6.60;;;21.80;99.90;;;;;;4970243;28;20611;-68
2022/09/11 09:04:29;;;;;;;15.13;6.53;;;21.80;99.90;;;;;;4998572;28;20416;-68
2022/09/11 09:07:19;;;;;;;11.80;6.13;;;22.00;99.90;;;;;;4988380;28;20507;-68
2022/09/11 09:10:03;;;;;;;11.73;5.97;;;22.00;99.90;;;;;;4993211;28;20502;-68
2022/09/11 09:12:42;;;;;;;7.40;5.40;;;22.00;99.90;;;;;;4995041;28;20445;-68
2022/09/11 09:15:32;;;;;;;8.97;6.20;;;21.50;99.90;;;;;;4998819;28;20462;-68
2022/09/11 09:18:12;;;;;;;20.93;6.83;;;21.20;99.90;;;;;;4999684;28;20929;-68
2022/09/11 09:20:43;;;;;;;21.20;7.03;;;21.30;99.90;;;;;;4993055;28;20526;-67
2022/09/11 09:23:24;;;;;;;13.43;7.07;;;21.20;99.90;;;;;;4997066;28;20957;-68
2022/09/11 09:25:53;;;;;;;16.33;6.87;;;21.00;99.90;;;;;;4986915;28;20424;-68
2022/09/11 09:28:21;;;;;;;6.13;5.53;;;21.00;99.90;;;;;;4993045;28;20490;-68
2022/09/11 09:30:55;;;;;;;10.53;6.03;;;21.20;99.90;;;;;;4993646;28;20424;-68
2022/09/11 09:33:37;;;;;;;6.37;5.60;;;21.20;99.90;;;;;;4994833;28;20873;-68
2022/09/11 09:36:17;;;;;;;15.17;7.40;;;21.40;99.90;;;;;;4987429;28;20586;-67
2022/09/11 09:38:43;;;;;;;14.20;6.17;;;21.30;99.90;;;;;;5000071;28;20608;-67
2022/09/11 09:41:33;;;;;;;14.23;6.07;;;21.30;99.90;;;;;;4992710;28;20420;-67
2022/09/11 09:44:05;;;;;;;12.70;5.07;;;21.20;99.90;;;;;;4987860;28;20888;-68
2022/09/11 09:46:42;;;;;;;8.07;5.10;;;20.90;99.90;;;;;;4994183;28;20419;-67
2022/09/11 09:49:16;;;;;;;12.00;4.90;;;20.90;99.90;;;;;;4992115;28;20941;-68
2022/09/11 09:51:42;;;;;;;5.67;5.07;;;20.90;99.90;;;;;;4998975;28;20415;-68
2022/09/11 09:54:18;;;;;;;12.53;5.50;;;20.90;99.90;;;;;;4996895;28;20482;-68
2022/09/11 09:56:52;;;;;;;12.53;5.80;;;21.00;99.90;;;;;;4989939;28;20275;-67
2022/09/11 09:59:21;;;;;;;26.27;7.10;;;21.00;99.90;;;;;;4992476;28;20509;-69
2022/09/11 10:01:52;;;;;;;7.83;4.53;;;21.00;99.90;;;;;;4995914;28;20442;-68
2022/09/11 10:04:26;;;;;;;11.57;5.23;;;20.90;99.90;;;;;;4989161;28;20530;-68
2022/09/11 10:07:04;;;;;;;4.80;4.13;;;20.90;99.90;;;;;;4990391;28;20420;-67
2022/09/11 10:09:30;;;;;;;6.53;5.57;;;20.90;99.90;;;;;;4993027;28;20462;-68
2022/09/11 10:12:01;;;;;;;9.57;5.20;;;20.70;99.90;;;;;;4994627;28;20497;-68
2022/09/11 10:14:31;;;;;;;9.17;4.63;;;20.60;99.90;;;;;;4990348;28;20913;-68
2022/09/11 10:16:58;;;;;;;5.97;5.37;;;20.60;99.90;;;;;;5005445;28;20415;-68
2022/09/11 10:19:40;;;;;;;10.00;5.10;;;20.80;99.90;;;;;;4991147;28;20471;-68
2022/09/11 10:22:25;;;;;;;7.43;5.37;;;20.90;99.90;;;;;;4993411;28;20470;-67
2022/09/11 10:25:11;;;;;;;12.90;5.00;;;21.00;99.90;;;;;;4990037;28;20760;-67
2022/09/11 10:28:01;;;;;;;5.63;5.13;;;20.80;99.90;;;;;;4989662;28;20424;-67
2022/09/11 10:30:30;;;;;;;6.57;5.57;;;20.80;99.90;;;;;;4994744;28;22195;-68
2022/09/11 10:32:57;;;;;;;6.87;5.47;;;20.90;99.90;;;;;;5001553;28;20427;-67
2022/09/11 10:35:26;;;;;;;5.70;5.30;;;21.10;99.90;;;;;;4983940;28;20482;-67
2022/09/11 10:38:04;;;;;;;10.50;5.03;;;21.50;99.90;;;;;;4989654;28;20750;-67
2022/09/11 10:40:30;;;;;;;11.57;5.23;;;21.70;99.90;;;;;;4991565;28;20434;-67
2022/09/11 10:42:56;;;;;;;15.70;6.53;;;21.80;99.90;;;;;;4992456;28;20423;-67
2022/09/11 10:45:23;;;;;;;20.63;5.77;;;21.90;99.90;;;;;;5002493;28;20172;-67
2022/09/11 10:47:49;;;;;;;16.40;5.50;;;21.80;99.90;;;;;;5005854;28;20263;-68
2022/09/11 10:50:21;;;;;;;25.47;6.10;;;21.50;99.90;;;;;;5004279;28;20527;-67
2022/09/11 10:52:50;;;;;;;9.37;4.57;;;21.20;99.90;;;;;;4995107;28;20541;-67
2022/09/11 10:55:17;;;;;;;12.73;5.20;;;21.40;99.90;;;;;;4996526;28;20455;-67
2022/09/11 10:57:48;;;;;;;12.77;5.27;;;21.40;99.90;;;;;;4999605;28;20419;-68
2022/09/11 11:00:19;;;;;;;9.70;4.80;;;21.30;99.90;;;;;;4992953;28;20423;-67
2022/09/11 11:03:11;;;;;;;5.50;4.40;;;21.20;99.90;;;;;;4991851;28;20522;-66
2022/09/11 11:05:39;;;;;;;15.90;5.83;;;21.50;99.90;;;;;;4991848;28;20431;-66
2022/09/11 11:08:17;;;;;;;15.90;5.97;;;21.60;99.90;;;;;;4992194;28;20964;-65
2022/09/11 11:11:04;;;;;;;11.40;5.37;;;22.10;99.90;;;;;;4990108;28;20415;-66
2022/09/11 11:14:00;;;;;;;31.47;7.23;;;22.50;99.90;;;;;;4997685;28;20420;-66
2022/09/11 11:16:40;;;;;;;24.77;6.30;;;22.60;99.90;;;;;;4993257;28;20507;-66
2022/09/11 11:19:31;;;;;;;24.07;6.50;;;22.80;99.90;;;;;;4992802;28;20431;-67
2022/09/11 11:22:15;;;;;;;12.97;4.63;;;22.50;99.90;;;;;;4992414;28;21234;-66
2022/09/11 11:25:02;;;;;;;16.90;5.10;;;22.40;99.90;;;;;;4992235;28;21138;-68
2022/09/11 11:27:48;;;;;;;32.53;6.87;;;22.60;99.90;;;;;;4993827;28;20416;-67
2022/09/11 11:30:19;;;;;;;39.23;6.80;;;22.90;99.90;;;;;;4997120;28;21059;-66
2022/09/11 11:33:00;;;;;;;32.63;8.47;;;23.00;99.90;;;;;;5001144;28;20427;-67
2022/09/11 11:35:56;;;;;;;10.93;4.20;;;22.90;99.90;;;;;;4993112;28;20520;-67
2022/09/11 11:38:40;;;;;;;9.50;3.83;;;22.60;99.90;;;;;;4980572;28;20459;-67
2022/09/11 11:41:13;;;;;;;7.67;3.77;;;22.40;99.90;;;;;;4990568;28;20839;-67
2022/09/11 11:43:42;;;;;;;4.47;3.20;;;22.40;99.90;;;;;;4996816;28;20514;-67
2022/09/11 11:46:28;;;;;;;10.10;3.47;;;22.40;99.90;;;;;;4980951;28;20500;-67
2022/09/11 11:49:21;;;;;;;20.90;5.20;;;22.30;99.90;;;;;;4990692;28;20619;-67
2022/09/11 11:52:15;;;;;;;6.17;3.67;;;22.40;99.90;;;;;;4982741;28;20463;-67
2022/09/11 11:54:48;;;;;;;6.30;3.60;;;22.50;99.90;;;;;;4975208;28;20455;-68
2022/09/11 11:57:19;;;;;;;3.87;3.20;;;22.80;99.90;;;;;;4989699;28;20443;-67
2022/09/11 11:59:50;;;;;;;37.20;5.53;;;22.90;99.90;;;;;;4991193;28;20795;-65
2022/09/11 12:02:19;;;;;;;5.47;2.70;;;22.80;99.90;;;;;;4990500;28;20904;-68
2022/09/11 12:04:48;;;;;;;15.70;3.90;;;22.80;99.90;;;;;;4990208;28;20947;-67
2022/09/11 12:07:30;;;;;;;26.20;5.73;;;22.60;99.90;;;;;;4990065;28;20404;-66
2022/09/11 12:09:58;;;;;;;14.37;4.20;;;22.40;99.90;;;;;;4989160;28;20570;-67
2022/09/11 12:12:27;;;;;;;10.83;3.67;;;22.40;99.90;;;;;;4990580;28;20418;-64
2022/09/11 12:15:03;;;;;;;12.37;5.47;;;22.40;99.90;;;;;;4990172;28;20474;-65
2022/09/11 12:17:31;;;;;;;24.93;6.93;;;22.40;99.90;;;;;;4989748;28;20831;-65
2022/09/11 12:20:29;;;;;;;22.10;5.33;;;22.40;99.90;;;;;;4989423;28;20562;-66
2022/09/11 12:22:55;;;;;;;11.33;5.17;;;22.40;99.90;;;;;;4981600;28;20420;-66
2022/09/11 12:25:20;;;;;;;5.03;3.43;;;22.30;99.90;;;;;;4989763;28;20411;-65
2022/09/11 12:27:47;;;;;;;6.30;3.50;;;22.10;99.90;;;;;;4989821;28;20196;-67
2022/09/11 12:30:16;;;;;;;6.27;4.93;;;21.80;99.90;;;;;;4989612;28;20634;-65
2022/09/11 12:32:50;;;;;;;11.27;4.40;;;22.10;99.90;;;;;;4990060;28;20404;-65
2022/09/11 12:35:40;;;;;;;13.20;5.03;;;22.20;99.90;;;;;;4989787;28;20543;-65
2022/09/11 12:38:05;;;;;;;13.77;4.67;;;22.30;99.90;;;;;;4989397;28;20545;-66
2022/09/11 12:40:37;;;;;;;19.60;6.07;;;22.40;99.90;;;;;;4992014;28;20490;-65
2022/09/11 12:43:16;;;;;;;16.43;4.43;;;22.50;99.90;;;;;;4992397;28;20263;-66
2022/09/11 12:45:42;;;;;;;15.70;5.50;;;22.50;99.90;;;;;;4992470;28;20466;-65
2022/09/11 12:48:21;;;;;;;10.23;3.93;;;22.50;99.90;;;;;;4991788;28;21006;-65
2022/09/11 12:50:53;;;;;;;10.50;3.77;;;22.80;99.90;;;;;;4992133;28;20418;-66
2022/09/11 12:53:30;;;;;;;19.93;5.70;;;22.80;99.90;;;;;;4992168;28;20408;-66
2022/09/11 12:55:57;;;;;;;20.60;6.23;;;22.80;99.90;;;;;;4992070;28;20447;-66
2022/09/11 12:58:29;;;;;;;24.53;4.57;;;22.80;99.90;;;;;;4991493;28;20431;-67
2022/09/11 13:01:13;;;;;;;13.83;3.40;;;22.80;99.90;;;;;;4990815;28;20416;-66
2022/09/11 13:03:51;;;;;;;6.03;2.70;;;22.60;99.90;;;;;;4992470;28;20904;-66
2022/09/11 13:06:17;;;;;;;5.10;3.53;;;22.30;99.90;;;;;;4992526;28;20444;-66
2022/09/11 13:08:51;;;;;;;9.37;3.20;;;22.00;99.90;;;;;;4991282;28;20939;-67